sensor_id;sensor_type;location;lat;lon;timestamp;pressure;altitude;pressure_sealevel;temperature;humidity
15193;BME280;7697;51.630;7.484;2023-06-22T00:04:30;-17858.69;;;23.59;64.63
15193;BME280;7697;51.630;7.484;2023-06-22T00:09:33;-17858.53;;;23.59;64.77
15193;BME280;7697;51.630;7.484;2023-06-22T00:14:36;-17856.50;;;23.52;64.91
15193;BME280;7697;51.630;7.484;2023-06-22T00:19:38;-17854.81;;;23.47;65.28
15193;BME280;7697;51.630;7.484;2023-06-22T00:24:40;-17855.34;;;23.49;65.55
15193;BME280;7697;51.630;7.484;2023-06-22T00:29:44;-17854.16;;;23.45;66.34
15193;BME280;7697;51.630;7.484;2023-06-22T00:34:46;-17851.31;;;23.37;66.36
15193;BME280;7697;51.630;7.484;2023-06-22T00:39:47;-17850.81;;;23.35;66.67
15193;BME280;7697;51.630;7.484;2023-06-22T00:44:51;-17848.28;;;23.28;66.95
15193;BME280;7697;51.630;7.484;2023-06-22T00:49:53;-17845.94;;;23.20;67.39
15193;BME280;7697;51.630;7.484;2023-06-22T00:54:55;-17845.59;;;23.19;67.28
15193;BME280;7697;51.630;7.484;2023-06-22T00:59:59;-17843.94;;;23.14;67.61
15193;BME280;7697;51.630;7.484;2023-06-22T01:05:00;-17841.91;;;23.08;68.14
15193;BME280;7697;51.630;7.484;2023-06-22T01:10:06;-17838.56;;;22.98;68.27
15193;BME280;7697;51.630;7.484;2023-06-22T01:15:15;-17838.72;;;22.99;68.83
15193;BME280;7697;51.630;7.484;2023-06-22T01:20:21;-17835.53;;;22.89;68.59
15193;BME280;7697;51.630;7.484;2023-06-22T01:25:31;-17833.84;;;22.84;69.15
15193;BME280;7697;51.630;7.484;2023-06-22T01:30:34;-17833.53;;;22.83;69.41
15193;BME280;7697;51.630;7.484;2023-06-22T01:35:40;-17830.66;;;22.74;69.92
15193;BME280;7697;51.630;7.484;2023-06-22T01:40:42;-17828.81;;;22.69;69.91
15193;BME280;7697;51.630;7.484;2023-06-22T01:45:45;-17829.16;;;22.70;70.71
15193;BME280;7697;51.630;7.484;2023-06-22T01:50:47;-17825.47;;;22.59;70.77
15193;BME280;7697;51.630;7.484;2023-06-22T01:55:49;-17823.78;;;22.54;71.20
15193;BME280;7697;51.630;7.484;2023-06-22T02:00:56;-17822.78;;;22.51;71.39
15193;BME280;7697;51.630;7.484;2023-06-22T02:06:04;-17821.59;;;22.47;71.62
15193;BME280;7697;51.630;7.484;2023-06-22T02:11:08;-17821.44;;;22.46;72.27
15193;BME280;7697;51.630;7.484;2023-06-22T02:16:13;-17820.09;;;22.42;72.45
15193;BME280;7697;51.630;7.484;2023-06-22T02:21:16;-17817.41;;;22.34;72.50
15193;BME280;7697;51.630;7.484;2023-06-22T02:26:18;-17814.91;;;22.27;72.58
15193;BME280;7697;51.630;7.484;2023-06-22T02:31:21;-17812.38;;;22.19;73.00
15193;BME280;7697;51.630;7.484;2023-06-22T02:36:25;-17813.03;;;22.21;73.58
15193;BME280;7697;51.630;7.484;2023-06-22T02:41:27;-17811.03;;;22.15;73.55
15193;BME280;7697;51.630;7.484;2023-06-22T02:46:30;-17806.66;;;22.02;73.64
15193;BME280;7697;51.630;7.484;2023-06-22T02:51:33;-17805.00;;;21.97;74.17
15193;BME280;7697;51.630;7.484;2023-06-22T02:56:36;-17805.66;;;21.99;74.14
15193;BME280;7697;51.630;7.484;2023-06-22T03:01:39;-17802.97;;;21.91;74.38
15193;BME280;7697;51.630;7.484;2023-06-22T03:06:41;-17802.13;;;21.88;74.79
15193;BME280;7697;51.630;7.484;2023-06-22T03:11:43;-17801.28;;;21.86;74.99
15193;BME280;7697;51.630;7.484;2023-06-22T03:16:46;-17802.66;;;21.90;75.62
15193;BME280;7697;51.630;7.484;2023-06-22T03:21:48;-17803.16;;;21.91;75.72
15193;BME280;7697;51.630;7.484;2023-06-22T03:26:49;-17800.28;;;21.83;75.51
15193;BME280;7697;51.630;7.484;2023-06-22T03:31:55;-17799.78;;;21.81;75.65
15193;BME280;7697;51.630;7.484;2023-06-22T03:36:56;-17798.63;;;21.78;75.88
15193;BME280;7697;51.630;7.484;2023-06-22T03:41:58;-17797.28;;;21.74;76.25
15193;BME280;7697;51.630;7.484;2023-06-22T03:47:02;-17795.75;;;21.69;76.12
15193;BME280;7697;51.630;7.484;2023-06-22T03:52:04;-17795.75;;;21.69;76.31
15193;BME280;7697;51.630;7.484;2023-06-22T03:57:07;-17793.91;;;21.63;76.54
15193;BME280;7697;51.630;7.484;2023-06-22T04:02:10;-17794.91;;;21.66;76.98
15193;BME280;7697;51.630;7.484;2023-06-22T04:07:12;-17792.25;;;21.58;77.07
15193;BME280;7697;51.630;7.484;2023-06-22T04:12:13;-17790.41;;;21.53;77.37
15193;BME280;7697;51.630;7.484;2023-06-22T04:17:17;-17791.72;;;21.57;77.76
15193;BME280;7697;51.630;7.484;2023-06-22T04:22:19;-17793.75;;;21.63;77.62
15193;BME280;7697;51.630;7.484;2023-06-22T04:27:21;-17794.44;;;21.65;77.30
15193;BME280;7697;51.630;7.484;2023-06-22T04:32:24;-17792.91;;;21.60;77.53
15193;BME280;7697;51.630;7.484;2023-06-22T04:37:26;-17798.28;;;21.77;77.39
15193;BME280;7697;51.630;7.484;2023-06-22T04:42:28;-17800.63;;;21.84;77.50
15193;BME280;7697;51.630;7.484;2023-06-22T04:47:32;-17802.97;;;21.91;77.51
15193;BME280;7697;51.630;7.484;2023-06-22T04:52:33;-17803.66;;;21.93;77.53
15193;BME280;7697;51.630;7.484;2023-06-22T04:57:35;-17807.19;;;22.03;77.75
15193;BME280;7697;51.630;7.484;2023-06-22T05:02:41;-17806.66;;;22.02;77.81
15193;BME280;7697;51.630;7.484;2023-06-22T05:07:43;-17809.69;;;22.11;77.46
15193;BME280;7697;51.630;7.484;2023-06-22T05:12:46;-17810.88;;;22.15;77.59
15193;BME280;7697;51.630;7.484;2023-06-22T05:17:49;-17811.03;;;22.15;77.61
15193;BME280;7697;51.630;7.484;2023-06-22T05:22:51;-17811.22;;;22.16;77.65
15193;BME280;7697;51.630;7.484;2023-06-22T05:27:53;-17811.03;;;22.15;78.09
15193;BME280;7697;51.630;7.484;2023-06-22T05:32:56;-17811.38;;;22.16;78.04
15193;BME280;7697;51.630;7.484;2023-06-22T05:37:58;-17810.69;;;22.14;78.39
15193;BME280;7697;51.630;7.484;2023-06-22T05:43:00;-17809.34;;;22.10;79.01
15193;BME280;7697;51.630;7.484;2023-06-22T05:48:04;-17810.03;;;22.12;79.11
15193;BME280;7697;51.630;7.484;2023-06-22T05:53:06;-17810.69;;;22.14;79.05
15193;BME280;7697;51.630;7.484;2023-06-22T05:58:08;-17813.72;;;22.23;78.72
15193;BME280;7697;51.630;7.484;2023-06-22T06:03:11;-17817.75;;;22.35;78.37
15193;BME280;7697;51.630;7.484;2023-06-22T06:08:13;-17821.25;;;22.46;77.48
15193;BME280;7697;51.630;7.484;2023-06-22T06:13:15;-17820.94;;;22.45;77.73
15193;BME280;7697;51.630;7.484;2023-06-22T06:18:18;-17825.28;;;22.58;76.96
15193;BME280;7697;51.630;7.484;2023-06-22T06:23:19;-17826.97;;;22.63;76.16
15193;BME280;7697;51.630;7.484;2023-06-22T06:28:22;-17832.34;;;22.79;76.11
15193;BME280;7697;51.630;7.484;2023-06-22T06:33:25;-17833.84;;;22.84;75.78
15193;BME280;7697;51.630;7.484;2023-06-22T06:38:26;-17833.84;;;22.84;75.11
15193;BME280;7697;51.630;7.484;2023-06-22T06:43:28;-17839.56;;;23.01;75.02
15193;BME280;7697;51.630;7.484;2023-06-22T06:48:32;-17841.91;;;23.08;74.85
15193;BME280;7697;51.630;7.484;2023-06-22T06:53:33;-17844.09;;;23.15;74.66
15193;BME280;7697;51.630;7.484;2023-06-22T06:58:35;-17847.44;;;23.25;74.66
15193;BME280;7697;51.630;7.484;2023-06-22T07:03:38;-17843.94;;;23.14;75.63
15193;BME280;7697;51.630;7.484;2023-06-22T07:08:40;-17847.44;;;23.25;75.32
15193;BME280;7697;51.630;7.484;2023-06-22T07:13:43;-17850.47;;;23.34;75.12
15193;BME280;7697;51.630;7.484;2023-06-22T07:18:46;-17852.47;;;23.40;75.31
15193;BME280;7697;51.630;7.484;2023-06-22T07:23:48;-17852.31;;;23.40;75.32
15193;BME280;7697;51.630;7.484;2023-06-22T07:28:50;-17855.00;;;23.48;75.33
15193;BME280;7697;51.630;7.484;2023-06-22T07:33:53;-17854.16;;;23.45;75.65
15193;BME280;7697;51.630;7.484;2023-06-22T07:38:55;-17854.16;;;23.45;75.66
15193;BME280;7697;51.630;7.484;2023-06-22T07:43:56;-17859.19;;;23.61;75.90
15193;BME280;7697;51.630;7.484;2023-06-22T07:49:00;-17860.38;;;23.64;76.19
15193;BME280;7697;51.630;7.484;2023-06-22T07:54:02;-17861.72;;;23.68;76.84
15193;BME280;7697;51.630;7.484;2023-06-22T07:59:04;-17862.72;;;23.71;77.00
15193;BME280;7697;51.630;7.484;2023-06-22T08:04:07;-17865.06;;;23.78;76.81
15193;BME280;7697;51.630;7.484;2023-06-22T08:09:09;-17867.59;;;23.86;77.01
15193;BME280;7697;51.630;7.484;2023-06-22T08:14:10;-17869.09;;;23.90;78.33
15193;BME280;7697;51.630;7.484;2023-06-22T08:19:14;-17871.44;;;23.98;78.93
15193;BME280;7697;51.630;7.484;2023-06-22T08:24:16;-17875.81;;;24.11;79.57
15193;BME280;7697;51.630;7.484;2023-06-22T08:29:18;-17881.69;;;24.28;80.29
15193;BME280;7697;51.630;7.484;2023-06-22T08:34:21;-17883.53;;;24.34;79.61
15193;BME280;7697;51.630;7.484;2023-06-22T08:39:25;-17888.56;;;24.49;79.17
15193;BME280;7697;51.630;7.484;2023-06-22T08:44:28;-17893.75;;;24.65;78.93
15193;BME280;7697;51.630;7.484;2023-06-22T08:49:31;-17897.28;;;24.76;78.74
15193;BME280;7697;51.630;7.484;2023-06-22T08:54:32;-17904.66;;;24.98;78.20
15193;BME280;7697;51.630;7.484;2023-06-22T08:59:35;-17924.13;;;25.57;76.67
15193;BME280;7697;51.630;7.484;2023-06-22T09:04:38;-17933.34;;;25.85;75.83
15193;BME280;7697;51.630;7.484;2023-06-22T09:09:40;-17935.38;;;25.91;74.92
15193;BME280;7697;51.630;7.484;2023-06-22T09:14:42;-17939.88;;;26.04;74.43
15193;BME280;7697;51.630;7.484;2023-06-22T09:19:45;-17944.59;;;26.19;73.23
15193;BME280;7697;51.630;7.484;2023-06-22T09:24:48;-17954.00;;;26.47;72.47
15193;BME280;7697;51.630;7.484;2023-06-22T09:29:50;-17962.88;;;26.74;72.10
15193;BME280;7697;51.630;7.484;2023-06-22T09:34:53;-17971.94;;;27.01;70.90
15193;BME280;7697;51.630;7.484;2023-06-22T09:39:55;-17974.63;;;27.09;70.57
15193;BME280;7697;51.630;7.484;2023-06-22T09:44:56;-17980.16;;;27.26;69.34
15193;BME280;7697;51.630;7.484;2023-06-22T09:50:00;-18004.13;;;27.98;67.28
15193;BME280;7697;51.630;7.484;2023-06-22T09:55:02;-18015.38;;;28.32;65.96
15193;BME280;7697;51.630;7.484;2023-06-22T10:00:06;-18034.16;;;28.89;64.56
15193;BME280;7697;51.630;7.484;2023-06-22T10:05:13;-18046.22;;;29.26;63.91
15193;BME280;7697;51.630;7.484;2023-06-22T10:10:15;-18053.28;;;29.47;62.64
15193;BME280;7697;51.630;7.484;2023-06-22T10:15:17;-18056.97;;;29.58;61.92
15193;BME280;7697;51.630;7.484;2023-06-22T10:20:20;-18056.28;;;29.56;62.28
15193;BME280;7697;51.630;7.484;2023-06-22T10:25:22;-18047.91;;;29.31;61.54
15193;BME280;7697;51.630;7.484;2023-06-22T10:30:24;-18048.41;;;29.32;61.95
15193;BME280;7697;51.630;7.484;2023-06-22T10:35:27;-18041.88;;;29.13;62.56
15193;BME280;7697;51.630;7.484;2023-06-22T10:40:29;-18038.53;;;29.02;63.18
15193;BME280;7697;51.630;7.484;2023-06-22T10:45:31;-18036.00;;;28.95;63.86
15193;BME280;7697;51.630;7.484;2023-06-22T10:50:34;-18038.00;;;29.01;64.84
15193;BME280;7697;51.630;7.484;2023-06-22T10:55:36;-18043.53;;;29.18;64.68
15193;BME280;7697;51.630;7.484;2023-06-22T11:00:38;-18051.59;;;29.42;63.54
15193;BME280;7697;51.630;7.484;2023-06-22T11:05:42;-18062.50;;;29.75;63.40
15193;BME280;7697;51.630;7.484;2023-06-22T11:10:44;-18065.19;;;29.83;62.25
15193;BME280;7697;51.630;7.484;2023-06-22T11:15:46;-18074.41;;;30.11;62.26
15193;BME280;7697;51.630;7.484;2023-06-22T11:20:49;-18070.03;;;29.98;61.79
15193;BME280;7697;51.630;7.484;2023-06-22T11:25:50;-18068.69;;;29.94;62.15
15193;BME280;7697;51.630;7.484;2023-06-22T11:30:52;-18067.19;;;29.89;62.51
15193;BME280;7697;51.630;7.484;2023-06-22T11:35:58;-18060.31;;;29.68;63.30
15193;BME280;7697;51.630;7.484;2023-06-22T11:41:00;-18048.91;;;29.34;64.24
15193;BME280;7697;51.630;7.484;2023-06-22T11:46:03;-18042.38;;;29.14;67.19
15193;BME280;7697;51.630;7.484;2023-06-22T11:51:07;-18033.50;;;28.87;70.14
15193;BME280;7697;51.630;7.484;2023-06-22T11:56:08;-18025.09;;;28.62;72.45
15193;BME280;7697;51.630;7.484;2023-06-22T12:01:10;-18013.19;;;28.26;74.86
15193;BME280;7697;51.630;7.484;2023-06-22T12:06:17;-17998.44;;;27.81;73.26
15193;BME280;7697;51.630;7.484;2023-06-22T12:11:19;-17988.38;;;27.51;75.83
15193;BME280;7697;51.630;7.484;2023-06-22T12:16:22;-17978.97;;;27.22;77.16
15193;BME280;7697;51.630;7.484;2023-06-22T12:21:26;-17972.44;;;27.03;78.75
15193;BME280;7697;51.630;7.484;2023-06-22T12:26:29;-17967.41;;;26.87;79.19
15193;BME280;7697;51.630;7.484;2023-06-22T12:31:32;-17958.69;;;26.61;80.11
15193;BME280;7697;51.630;7.484;2023-06-22T12:37:00;-17949.13;;;26.32;82.60
15193;BME280;7697;51.630;7.484;2023-06-22T12:42:03;-17944.41;;;26.18;82.33
15193;BME280;7697;51.630;7.484;2023-06-22T12:47:09;-17939.72;;;26.04;83.27
15193;BME280;7697;51.630;7.484;2023-06-22T12:52:15;-17935.53;;;25.91;84.00
15193;BME280;7697;51.630;7.484;2023-06-22T12:57:16;-17927.16;;;25.66;85.51
15193;BME280;7697;51.630;7.484;2023-06-22T13:02:19;-17916.06;;;25.32;86.56
15193;BME280;7697;51.630;7.484;2023-06-22T13:07:22;-17906.00;;;25.02;87.82
15193;BME280;7697;51.630;7.484;2023-06-22T13:12:24;-17899.97;;;24.84;89.43
15193;BME280;7697;51.630;7.484;2023-06-22T13:17:26;-17896.59;;;24.74;88.72
15193;BME280;7697;51.630;7.484;2023-06-22T13:22:30;-17898.28;;;24.79;88.25
15193;BME280;7697;51.630;7.484;2023-06-22T13:27:32;-17896.94;;;24.75;88.97
15193;BME280;7697;51.630;7.484;2023-06-22T13:32:34;-17899.28;;;24.82;89.86
15193;BME280;7697;51.630;7.484;2023-06-22T13:37:37;-17910.38;;;25.15;90.70
15193;BME280;7697;51.630;7.484;2023-06-22T13:42:39;-17914.41;;;25.27;89.55
15193;BME280;7697;51.630;7.484;2023-06-22T13:47:41;-17919.94;;;25.44;88.92
15193;BME280;7697;51.630;7.484;2023-06-22T13:52:44;-17921.78;;;25.50;88.07
15193;BME280;7697;51.630;7.484;2023-06-22T13:57:46;-17922.94;;;25.53;87.13
15193;BME280;7697;51.630;7.484;2023-06-22T14:02:48;-17920.44;;;25.46;87.85
15193;BME280;7697;51.630;7.484;2023-06-22T14:07:51;-17918.09;;;25.38;87.44
15193;BME280;7697;51.630;7.484;2023-06-22T14:12:53;-17918.09;;;25.38;88.14
15193;BME280;7697;51.630;7.484;2023-06-22T14:17:55;-17916.06;;;25.32;88.21
15193;BME280;7697;51.630;7.484;2023-06-22T14:22:58;-17914.72;;;25.28;88.21
15193;BME280;7697;51.630;7.484;2023-06-22T14:28:00;-17912.88;;;25.23;88.41
15193;BME280;7697;51.630;7.484;2023-06-22T14:33:02;-17912.03;;;25.20;89.09
15193;BME280;7697;51.630;7.484;2023-06-22T14:38:05;-17908.03;;;25.08;89.26
15193;BME280;7697;51.630;7.484;2023-06-22T14:43:07;-17905.50;;;25.00;89.62
15193;BME280;7697;51.630;7.484;2023-06-22T14:48:09;-17905.00;;;24.99;90.46
15193;BME280;7697;51.630;7.484;2023-06-22T14:53:12;-17908.34;;;25.09;90.50
15193;BME280;7697;51.630;7.484;2023-06-22T14:58:14;-17905.84;;;25.01;90.47
15193;BME280;7697;51.630;7.484;2023-06-22T15:03:16;-17905.84;;;25.01;90.60
15193;BME280;7697;51.630;7.484;2023-06-22T15:08:26;-17905.50;;;25.00;91.44
15193;BME280;7697;51.630;7.484;2023-06-22T15:13:29;-17904.66;;;24.98;91.38
15193;BME280;7697;51.630;7.484;2023-06-22T15:18:34;-17905.34;;;25.00;90.70
15193;BME280;7697;51.630;7.484;2023-06-22T15:23:38;-17909.19;;;25.12;91.18
15193;BME280;7697;51.630;7.484;2023-06-22T15:28:40;-17910.38;;;25.15;91.39
15193;BME280;7697;51.630;7.484;2023-06-22T15:33:43;-17907.69;;;25.07;91.21
15193;BME280;7697;51.630;7.484;2023-06-22T15:38:46;-17902.47;;;24.91;90.55
15193;BME280;7697;51.630;7.484;2023-06-22T15:43:48;-17900.13;;;24.84;90.19
15193;BME280;7697;51.630;7.484;2023-06-22T15:48:50;-17893.75;;;24.65;90.56
15193;BME280;7697;51.630;7.484;2023-06-22T15:53:53;-17890.56;;;24.55;90.41
15193;BME280;7697;51.630;7.484;2023-06-22T15:58:55;-17886.88;;;24.44;91.41
15193;BME280;7697;51.630;7.484;2023-06-22T16:03:57;-17879.84;;;24.23;92.11
15193;BME280;7697;51.630;7.484;2023-06-22T16:09:00;-17881.84;;;24.29;92.67
15193;BME280;7697;51.630;7.484;2023-06-22T16:14:03;-17879.50;;;24.22;92.87
15193;BME280;7697;51.630;7.484;2023-06-22T16:19:05;-17870.59;;;23.95;93.63
15193;BME280;7697;51.630;7.484;2023-06-22T16:24:08;-17864.72;;;23.77;93.89
15193;BME280;7697;51.630;7.484;2023-06-22T16:29:10;-17856.69;;;23.53;94.75
15193;BME280;7697;51.630;7.484;2023-06-22T16:34:12;-17849.28;;;23.31;96.28
15193;BME280;7697;51.630;7.484;2023-06-22T16:39:16;-17845.25;;;23.18;97.17
15193;BME280;7697;51.630;7.484;2023-06-22T16:44:18;-17838.56;;;22.98;98.14
15193;BME280;7697;51.630;7.484;2023-06-22T16:49:19;-17834.03;;;22.85;98.96
15193;BME280;7697;51.630;7.484;2023-06-22T16:54:23;-17830.50;;;22.74;99.61
15193;BME280;7697;51.630;7.484;2023-06-22T16:59:25;-17826.13;;;22.61;100.00
15193;BME280;7697;51.630;7.484;2023-06-22T17:04:29;-17826.13;;;22.61;100.00
15193;BME280;7697;51.630;7.484;2023-06-22T17:09:34;-17825.63;;;22.59;100.00
15193;BME280;7697;51.630;7.484;2023-06-22T17:14:39;-17825.47;;;22.59;100.00
15193;BME280;7697;51.630;7.484;2023-06-22T17:19:44;-17822.78;;;22.51;100.00
15193;BME280;7697;51.630;7.484;2023-06-22T17:24:50;-17818.25;;;22.37;100.00
15193;BME280;7697;51.630;7.484;2023-06-22T17:30:03;-17816.41;;;22.31;100.00
15193;BME280;7697;51.630;7.484;2023-06-22T17:35:05;-17817.75;;;22.35;100.00
15193;BME280;7697;51.630;7.484;2023-06-22T17:40:13;-17817.41;;;22.34;100.00
15193;BME280;7697;51.630;7.484;2023-06-22T17:45:17;-17815.06;;;22.27;100.00
15193;BME280;7697;51.630;7.484;2023-06-22T17:50:23;-17815.22;;;22.28;100.00
15193;BME280;7697;51.630;7.484;2023-06-22T17:55:26;-17814.22;;;22.25;100.00
15193;BME280;7697;51.630;7.484;2023-06-22T18:00:28;-17813.03;;;22.21;100.00
15193;BME280;7697;51.630;7.484;2023-06-22T18:05:31;-17814.06;;;22.24;100.00
15193;BME280;7697;51.630;7.484;2023-06-22T18:10:36;-17813.72;;;22.23;100.00
15193;BME280;7697;51.630;7.484;2023-06-22T18:15:39;-17811.38;;;22.16;100.00
15193;BME280;7697;51.630;7.484;2023-06-22T18:20:42;-17812.03;;;22.18;100.00
15193;BME280;7697;51.630;7.484;2023-06-22T18:25:45;-17812.53;;;22.20;100.00
15193;BME280;7697;51.630;7.484;2023-06-22T18:30:49;-17811.38;;;22.16;100.00
15193;BME280;7697;51.630;7.484;2023-06-22T18:35:51;-17810.38;;;22.13;100.00
15193;BME280;7697;51.630;7.484;2023-06-22T18:40:55;-17811.88;;;22.18;100.00
15193;BME280;7697;51.630;7.484;2023-06-22T18:46:30;-17809.03;;;22.09;100.00
15193;BME280;7697;51.630;7.484;2023-06-22T18:51:48;-17809.03;;;22.09;100.00
15193;BME280;7697;51.630;7.484;2023-06-22T18:56:56;-17810.38;;;22.13;100.00
15193;BME280;7697;51.630;7.484;2023-06-22T19:02:00;-17809.19;;;22.10;100.00
15193;BME280;7697;51.630;7.484;2023-06-22T19:07:01;-17807.50;;;22.04;100.00
15193;BME280;7697;51.630;7.484;2023-06-22T19:12:20;-17807.34;;;22.04;100.00
15193;BME280;7697;51.630;7.484;2023-06-22T19:17:22;-17806.34;;;22.01;100.00
15193;BME280;7697;51.630;7.484;2023-06-22T19:22:43;-17807.00;;;22.03;100.00
15193;BME280;7697;51.630;7.484;2023-06-22T19:27:47;-17807.50;;;22.04;100.00
15193;BME280;7697;51.630;7.484;2023-06-22T19:32:51;-17807.00;;;22.03;100.00
15193;BME280;7697;51.630;7.484;2023-06-22T19:37:53;-17806.34;;;22.01;100.00
15193;BME280;7697;51.630;7.484;2023-06-22T19:42:56;-17806.84;;;22.02;100.00
15193;BME280;7697;51.630;7.484;2023-06-22T19:47:58;-17805.34;;;21.98;100.00
15193;BME280;7697;51.630;7.484;2023-06-22T19:53:00;-17805.66;;;21.99;100.00
15193;BME280;7697;51.630;7.484;2023-06-22T19:58:04;-17805.84;;;21.99;100.00
15193;BME280;7697;51.630;7.484;2023-06-22T20:03:08;-17804.31;;;21.95;100.00
15193;BME280;7697;51.630;7.484;2023-06-22T20:08:11;-17806.50;;;22.01;100.00
15193;BME280;7697;51.630;7.484;2023-06-22T20:13:16;-17810.19;;;22.13;100.00
15193;BME280;7697;51.630;7.484;2023-06-22T20:18:22;-17808.84;;;22.08;100.00
15193;BME280;7697;51.630;7.484;2023-06-22T20:23:23;-17808.03;;;22.06;100.00
15193;BME280;7697;51.630;7.484;2023-06-22T20:28:27;-17806.00;;;22.00;100.00
15193;BME280;7697;51.630;7.484;2023-06-22T20:33:29;-17807.00;;;22.03;100.00
15193;BME280;7697;51.630;7.484;2023-06-22T20:38:31;-17805.00;;;21.97;100.00
15193;BME280;7697;51.630;7.484;2023-06-22T20:43:35;-17803.97;;;21.94;100.00
15193;BME280;7697;51.630;7.484;2023-06-22T20:48:36;-17806.00;;;22.00;100.00
15193;BME280;7697;51.630;7.484;2023-06-22T20:53:38;-17803.47;;;21.92;100.00
15193;BME280;7697;51.630;7.484;2023-06-22T20:58:41;-17806.19;;;22.00;100.00
15193;BME280;7697;51.630;7.484;2023-06-22T21:03:43;-17804.81;;;21.96;100.00
15193;BME280;7697;51.630;7.484;2023-06-22T21:08:45;-17806.19;;;22.00;100.00
15193;BME280;7697;51.630;7.484;2023-06-22T21:13:48;-17806.00;;;22.00;100.00
15193;BME280;7697;51.630;7.484;2023-06-22T21:18:50;-17806.00;;;22.00;100.00
15193;BME280;7697;51.630;7.484;2023-06-22T21:23:52;-17790.91;;;21.54;100.00
15193;BME280;7697;51.630;7.484;2023-06-22T21:28:55;-17775.78;;;21.09;100.00
15193;BME280;7697;51.630;7.484;2023-06-22T21:33:57;-17767.06;;;20.82;100.00
15193;BME280;7697;51.630;7.484;2023-06-22T21:38:59;-17759.34;;;20.59;100.00
15193;BME280;7697;51.630;7.484;2023-06-22T21:44:03;-17752.63;;;20.39;100.00
15193;BME280;7697;51.630;7.484;2023-06-22T21:49:04;-17750.28;;;20.32;100.00
15193;BME280;7697;51.630;7.484;2023-06-22T21:54:06;-17743.91;;;20.12;100.00
15193;BME280;7697;51.630;7.484;2023-06-22T21:59:09;-17737.88;;;19.94;100.00
15193;BME280;7697;51.630;7.484;2023-06-22T22:04:11;-17731.50;;;19.75;100.00
15193;BME280;7697;51.630;7.484;2023-06-22T22:09:13;-17723.59;;;19.51;100.00
15193;BME280;7697;51.630;7.484;2023-06-22T22:14:16;-17719.41;;;19.38;100.00
15193;BME280;7697;51.630;7.484;2023-06-22T22:19:18;-17717.88;;;19.34;100.00
15193;BME280;7697;51.630;7.484;2023-06-22T22:24:20;-17708.50;;;19.05;100.00
15193;BME280;7697;51.630;7.484;2023-06-22T22:29:23;-17704.63;;;18.94;100.00
15193;BME280;7697;51.630;7.484;2023-06-22T22:34:28;-17697.75;;;18.73;100.00
15193;BME280;7697;51.630;7.484;2023-06-22T22:39:30;-17694.22;;;18.62;100.00
15193;BME280;7697;51.630;7.484;2023-06-22T22:44:33;-17694.22;;;18.62;100.00
15193;BME280;7697;51.630;7.484;2023-06-22T22:49:36;-17690.38;;;18.51;100.00
15193;BME280;7697;51.630;7.484;2023-06-22T22:54:37;-17682.31;;;18.26;100.00
15193;BME280;7697;51.630;7.484;2023-06-22T22:59:44;-17682.47;;;18.27;100.00
15193;BME280;7697;51.630;7.484;2023-06-22T23:04:54;-17683.31;;;18.29;100.00
15193;BME280;7697;51.630;7.484;2023-06-22T23:09:56;-17681.47;;;18.24;100.00
15193;BME280;7697;51.630;7.484;2023-06-22T23:14:59;-17681.13;;;18.23;100.00
15193;BME280;7697;51.630;7.484;2023-06-22T23:20:01;-17681.13;;;18.23;100.00
15193;BME280;7697;51.630;7.484;2023-06-22T23:25:05;-17683.16;;;18.29;100.00
15193;BME280;7697;51.630;7.484;2023-06-22T23:30:10;-17680.63;;;18.21;100.00
15193;BME280;7697;51.630;7.484;2023-06-22T23:35:12;-17682.47;;;18.27;100.00
15193;BME280;7697;51.630;7.484;2023-06-22T23:40:14;-17681.66;;;18.24;100.00
15193;BME280;7697;51.630;7.484;2023-06-22T23:45:19;-17678.13;;;18.14;100.00
15193;BME280;7697;51.630;7.484;2023-06-22T23:50:22;-17678.47;;;18.15;100.00
15193;BME280;7697;51.630;7.484;2023-06-22T23:55:23;-17678.97;;;18.16;100.00
